sensor_id;sensor_type;location;lat;lon;timestamp;pressure;altitude;pressure_sealevel;temperature;humidity
73429;BME280;61643;49.564;17.412;2023-01-23T00:00:28;99571.66;;;0.09;100.00
73429;BME280;61643;49.564;17.412;2023-01-23T00:02:55;99570.50;;;0.11;100.00
73429;BME280;61643;49.564;17.412;2023-01-23T00:05:20;99580.75;;;0.06;100.00
73429;BME280;61643;49.564;17.412;2023-01-23T00:07:46;99577.41;;;0.04;100.00
73429;BME280;61643;49.564;17.412;2023-01-23T00:10:11;99566.72;;;0.14;100.00
73429;BME280;61643;49.564;17.412;2023-01-23T00:12:40;99566.59;;;0.23;100.00
73429;BME280;61643;49.564;17.412;2023-01-23T00:15:08;99573.56;;;0.24;100.00
73429;BME280;61643;49.564;17.412;2023-01-23T00:17:33;99578.34;;;0.21;100.00
73429;BME280;61643;49.564;17.412;2023-01-23T00:19:59;99570.03;;;0.16;100.00
73429;BME280;61643;49.564;17.412;2023-01-23T00:22:24;99553.19;;;0.17;100.00
73429;BME280;61643;49.564;17.412;2023-01-23T00:24:50;99551.69;;;0.14;100.00
73429;BME280;61643;49.564;17.412;2023-01-23T00:27:15;99562.56;;;0.11;100.00
73429;BME280;61643;49.564;17.412;2023-01-23T00:29:41;99562.28;;;0.14;100.00
73429;BME280;61643;49.564;17.412;2023-01-23T00:32:06;99561.13;;;0.17;100.00
73429;BME280;61643;49.564;17.412;2023-01-23T00:34:31;99553.31;;;0.15;100.00
73429;BME280;61643;49.564;17.412;2023-01-23T00:36:57;99568.88;;;0.18;100.00
73429;BME280;61643;49.564;17.412;2023-01-23T00:39:22;99561.59;;;0.12;100.00
73429;BME280;61643;49.564;17.412;2023-01-23T00:41:48;99561.06;;;0.09;100.00
73429;BME280;61643;49.564;17.412;2023-01-23T00:44:15;99565.53;;;0.08;100.00
73429;BME280;61643;49.564;17.412;2023-01-23T00:46:40;99561.84;;;0.01;100.00
73429;BME280;61643;49.564;17.412;2023-01-23T00:49:06;99569.31;;;0.06;100.00
73429;BME280;61643;49.564;17.412;2023-01-23T00:51:32;99574.81;;;0.12;100.00
73429;BME280;61643;49.564;17.412;2023-01-23T00:53:57;99568.69;;;0.12;100.00
73429;BME280;61643;49.564;17.412;2023-01-23T00:56:23;99571.13;;;0.05;100.00
73429;BME280;61643;49.564;17.412;2023-01-23T00:58:48;99559.13;;;0.11;100.00
73429;BME280;61643;49.564;17.412;2023-01-23T01:01:14;99571.34;;;0.12;100.00
73429;BME280;61643;49.564;17.412;2023-01-23T01:03:41;99563.72;;;0.09;100.00
73429;BME280;61643;49.564;17.412;2023-01-23T01:06:07;99553.31;;;0.15;100.00
73429;BME280;61643;49.564;17.412;2023-01-23T01:08:33;99558.94;;;0.12;100.00
73429;BME280;61643;49.564;17.412;2023-01-23T01:10:58;99545.69;;;0.12;100.00
73429;BME280;61643;49.564;17.412;2023-01-23T01:13:24;99538.09;;;0.09;100.00
73429;BME280;61643;49.564;17.412;2023-01-23T01:15:51;99537.56;;;0.06;100.00
73429;BME280;61643;49.564;17.412;2023-01-23T01:18:18;99537.56;;;0.06;100.00
73429;BME280;61643;49.564;17.412;2023-01-23T01:20:44;99537.25;;;0.09;100.00
73429;BME280;61643;49.564;17.412;2023-01-23T01:23:10;99542.72;;;0.07;100.00
73429;BME280;61643;49.564;17.412;2023-01-23T01:25:36;99536.06;;;0.03;100.00
73429;BME280;61643;49.564;17.412;2023-01-23T01:28:02;99543.91;;;-0.13;100.00
73429;BME280;61643;49.564;17.412;2023-01-23T01:30:28;99540.81;;;-0.09;100.00
73429;BME280;61643;49.564;17.412;2023-01-23T01:32:54;99548.78;;;-0.01;100.00
73429;BME280;61643;49.564;17.412;2023-01-23T01:35:20;99556.25;;;0.04;100.00
73429;BME280;61643;49.564;17.412;2023-01-23T01:37:46;99545.25;;;-0.09;100.00
73429;BME280;61643;49.564;17.412;2023-01-23T01:40:22;99555.91;;;-0.01;100.00
73429;BME280;61643;49.564;17.412;2023-01-23T01:42:55;99541.84;;;-0.02;100.00
73429;BME280;61643;49.564;17.412;2023-01-23T01:48:27;99548.09;;;-0.03;100.00
73429;BME280;61643;49.564;17.412;2023-01-23T01:50:53;99552.56;;;-0.03;100.00
73429;BME280;61643;49.564;17.412;2023-01-23T01:53:20;99550.66;;;0.07;100.00
73429;BME280;61643;49.564;17.412;2023-01-23T01:55:48;99555.94;;;0.07;100.00
73429;BME280;61643;49.564;17.412;2023-01-23T01:58:14;99558.59;;;0.07;100.00
73429;BME280;61643;49.564;17.412;2023-01-23T02:00:39;99559.56;;;0.06;100.00
73429;BME280;61643;49.564;17.412;2023-01-23T02:03:05;99568.81;;;0.02;100.00
73429;BME280;61643;49.564;17.412;2023-01-23T02:05:37;99580.56;;;0.08;100.00
73429;BME280;61643;49.564;17.412;2023-01-23T02:10:47;99584.81;;;-0.08;100.00
73429;BME280;61643;49.564;17.412;2023-01-23T02:15:44;99578.75;;;0.08;100.00
73429;BME280;61643;49.564;17.412;2023-01-23T02:18:10;99583.22;;;0.08;100.00
73429;BME280;61643;49.564;17.412;2023-01-23T02:20:36;99582.19;;;0.00;100.00
73429;BME280;61643;49.564;17.412;2023-01-23T02:23:26;99589.66;;;0.05;100.00
73429;BME280;61643;49.564;17.412;2023-01-23T02:26:05;99588.38;;;0.09;100.00
73429;BME280;61643;49.564;17.412;2023-01-23T02:28:45;99576.13;;;0.08;100.00
73429;BME280;61643;49.564;17.412;2023-01-23T02:31:12;99581.94;;;0.12;100.00
73429;BME280;61643;49.564;17.412;2023-01-23T02:36:04;99586.38;;;0.11;100.00
73429;BME280;61643;49.564;17.412;2023-01-23T02:38:47;99576.28;;;0.07;100.00
73429;BME280;61643;49.564;17.412;2023-01-23T02:41:17;99586.38;;;0.03;100.00
73429;BME280;61643;49.564;17.412;2023-01-23T02:43:46;99587.03;;;0.05;100.00
73429;BME280;61643;49.564;17.412;2023-01-23T02:46:12;99588.00;;;0.04;100.00
73429;BME280;61643;49.564;17.412;2023-01-23T02:48:40;99575.47;;;0.06;100.00
73429;BME280;61643;49.564;17.412;2023-01-23T02:51:08;99568.88;;;0.10;100.00
73429;BME280;61643;49.564;17.412;2023-01-23T02:53:33;99563.00;;;-0.02;100.00
73429;BME280;61643;49.564;17.412;2023-01-23T02:55:58;99575.13;;;0.09;100.00
73429;BME280;61643;49.564;17.412;2023-01-23T02:58:25;99571.13;;;0.05;100.00
73429;BME280;61643;49.564;17.412;2023-01-23T03:01:09;99565.34;;;0.02;100.00
73429;BME280;61643;49.564;17.412;2023-01-23T03:03:34;99565.50;;;0.00;100.00
73429;BME280;61643;49.564;17.412;2023-01-23T03:05:59;99563.19;;;0.05;100.00
73429;BME280;61643;49.564;17.412;2023-01-23T03:08:28;99565.69;;;0.07;100.00
73429;BME280;61643;49.564;17.412;2023-01-23T03:10:59;99566.22;;;0.10;100.00
73429;BME280;61643;49.564;17.412;2023-01-23T03:13:25;99566.81;;;0.04;100.00
73429;BME280;61643;49.564;17.412;2023-01-23T03:15:50;99564.41;;;0.11;100.00
73429;BME280;61643;49.564;17.412;2023-01-23T03:18:18;99568.38;;;0.15;100.00
73429;BME280;61643;49.564;17.412;2023-01-23T03:20:44;99576.53;;;0.21;100.00
73429;BME280;61643;49.564;17.412;2023-01-23T03:23:10;99577.53;;;0.20;100.00
73429;BME280;61643;49.564;17.412;2023-01-23T03:25:35;99584.16;;;0.24;100.00
73429;BME280;61643;49.564;17.412;2023-01-23T03:28:01;99589.91;;;0.20;100.00
73429;BME280;61643;49.564;17.412;2023-01-23T03:30:27;99583.13;;;0.17;100.00
73429;BME280;61643;49.564;17.412;2023-01-23T03:32:52;99582.50;;;0.23;100.00
73429;BME280;61643;49.564;17.412;2023-01-23T03:35:18;99592.75;;;0.26;100.00
73429;BME280;61643;49.564;17.412;2023-01-23T03:37:47;99580.53;;;0.25;100.00
73429;BME280;61643;49.564;17.412;2023-01-23T03:40:18;99597.44;;;0.32;100.00
73429;BME280;61643;49.564;17.412;2023-01-23T03:43:03;99600.03;;;0.24;100.00
73429;BME280;61643;49.564;17.412;2023-01-23T03:45:28;99587.16;;;0.29;100.00
73429;BME280;61643;49.564;17.412;2023-01-23T03:47:54;99597.59;;;0.31;100.00
73429;BME280;61643;49.564;17.412;2023-01-23T03:50:19;99588.16;;;0.28;100.00
73429;BME280;61643;49.564;17.412;2023-01-23T03:52:44;99598.06;;;0.26;100.00
73429;BME280;61643;49.564;17.412;2023-01-23T03:55:10;99597.75;;;0.29;99.93
73429;BME280;61643;49.564;17.412;2023-01-23T03:57:35;99601.41;;;0.28;100.00
73429;BME280;61643;49.564;17.412;2023-01-23T04:00:01;99596.63;;;0.32;100.00
73429;BME280;61643;49.564;17.412;2023-01-23T04:02:26;99589.13;;;0.27;99.89
73429;BME280;61643;49.564;17.412;2023-01-23T04:04:53;99592.81;;;0.34;100.00
73429;BME280;61643;49.564;17.412;2023-01-23T04:07:18;99601.91;;;0.32;100.00
73429;BME280;61643;49.564;17.412;2023-01-23T04:09:44;99600.25;;;0.31;100.00
73429;BME280;61643;49.564;17.412;2023-01-23T04:12:09;99603.34;;;0.26;100.00
73429;BME280;61643;49.564;17.412;2023-01-23T04:14:35;99587.16;;;0.29;100.00
73429;BME280;61643;49.564;17.412;2023-01-23T04:17:03;99591.50;;;0.38;100.00
73429;BME280;61643;49.564;17.412;2023-01-23T04:19:29;99574.03;;;0.20;100.00
73429;BME280;61643;49.564;17.412;2023-01-23T04:21:54;99589.34;;;0.34;100.00
73429;BME280;61643;49.564;17.412;2023-01-23T04:24:20;99590.81;;;0.36;100.00
73429;BME280;61643;49.564;17.412;2023-01-23T04:26:45;99589.84;;;0.37;100.00
73429;BME280;61643;49.564;17.412;2023-01-23T04:29:11;99584.34;;;0.31;100.00
73429;BME280;61643;49.564;17.412;2023-01-23T04:31:37;99587.16;;;0.29;100.00
73429;BME280;61643;49.564;17.412;2023-01-23T04:34:02;99594.13;;;0.30;100.00
73429;BME280;61643;49.564;17.412;2023-01-23T04:36:28;99595.78;;;0.31;100.00
73429;BME280;61643;49.564;17.412;2023-01-23T04:38:53;99597.97;;;0.36;100.00
73429;BME280;61643;49.564;17.412;2023-01-23T04:41:25;99599.28;;;0.40;100.00
73429;BME280;61643;49.564;17.412;2023-01-23T04:43:51;99609.59;;;0.43;100.00
73429;BME280;61643;49.564;17.412;2023-01-23T04:46:16;99605.72;;;0.37;100.00
73429;BME280;61643;49.564;17.412;2023-01-23T04:48:42;99600.75;;;0.34;100.00
73429;BME280;61643;49.564;17.412;2023-01-23T04:51:07;99606.88;;;0.35;100.00
73429;BME280;61643;49.564;17.412;2023-01-23T04:53:33;99604.06;;;0.36;100.00
73429;BME280;61643;49.564;17.412;2023-01-23T04:55:59;99603.78;;;0.39;100.00
73429;BME280;61643;49.564;17.412;2023-01-23T04:58:24;99605.41;;;0.40;100.00
73429;BME280;61643;49.564;17.412;2023-01-23T05:00:49;99610.94;;;0.47;100.00
73429;BME280;61643;49.564;17.412;2023-01-23T05:03:15;99618.50;;;0.42;100.00
73429;BME280;61643;49.564;17.412;2023-01-23T05:05:41;99623.81;;;0.42;100.00
73429;BME280;61643;49.564;17.412;2023-01-23T05:08:11;99606.88;;;0.35;100.00
73429;BME280;61643;49.564;17.412;2023-01-23T05:10:37;99620.66;;;0.38;99.79
73429;BME280;61643;49.564;17.412;2023-01-23T05:13:03;99625.94;;;0.38;100.00
73429;BME280;61643;49.564;17.412;2023-01-23T05:15:29;99635.03;;;0.36;100.00
73429;BME280;61643;49.564;17.412;2023-01-23T05:17:54;99626.59;;;0.40;99.59
73429;BME280;61643;49.564;17.412;2023-01-23T05:20:20;99626.78;;;0.39;100.00
73429;BME280;61643;49.564;17.412;2023-01-23T05:22:48;99627.09;;;0.36;100.00
73429;BME280;61643;49.564;17.412;2023-01-23T05:25:22;99637.84;;;0.34;100.00
73429;BME280;61643;49.564;17.412;2023-01-23T05:27:48;99647.72;;;0.24;100.00
73429;BME280;61643;49.564;17.412;2023-01-23T05:30:14;99654.19;;;0.30;100.00
73429;BME280;61643;49.564;17.412;2023-01-23T05:32:40;99641.78;;;0.30;100.00
73429;BME280;61643;49.564;17.412;2023-01-23T05:35:06;99632.22;;;0.37;100.00
73429;BME280;61643;49.564;17.412;2023-01-23T05:37:31;99628.72;;;0.37;100.00
73429;BME280;61643;49.564;17.412;2023-01-23T05:39:56;99620.28;;;0.33;99.79
73429;BME280;61643;49.564;17.412;2023-01-23T05:42:22;99640.59;;;0.51;99.24
73429;BME280;61643;49.564;17.412;2023-01-23T05:44:47;99639.53;;;0.43;99.46
73429;BME280;61643;49.564;17.412;2023-01-23T05:47:13;99642.97;;;0.36;99.89
73429;BME280;61643;49.564;17.412;2023-01-23T05:49:39;99639.84;;;0.40;99.28
73429;BME280;61643;49.564;17.412;2023-01-23T05:52:04;99630.41;;;0.38;99.48
73429;BME280;61643;49.564;17.412;2023-01-23T05:54:30;99648.78;;;0.39;100.00
73429;BME280;61643;49.564;17.412;2023-01-23T05:56:55;99657.34;;;0.33;100.00
73429;BME280;61643;49.564;17.412;2023-01-23T05:59:20;99667.00;;;0.42;99.76
73429;BME280;61643;49.564;17.412;2023-01-23T06:01:46;99650.81;;;0.45;99.70
73429;BME280;61643;49.564;17.412;2023-01-23T06:04:11;99645.56;;;0.54;98.91
73429;BME280;61643;49.564;17.412;2023-01-23T06:06:41;99659.28;;;0.49;99.42
73429;BME280;61643;49.564;17.412;2023-01-23T06:09:06;99651.00;;;0.52;99.72
73429;BME280;61643;49.564;17.412;2023-01-23T06:11:31;99657.13;;;0.53;99.24
73429;BME280;61643;49.564;17.412;2023-01-23T06:13:57;99652.50;;;0.55;99.32
73429;BME280;61643;49.564;17.412;2023-01-23T06:16:22;99664.44;;;0.51;99.92
73429;BME280;61643;49.564;17.412;2023-01-23T06:18:47;99664.94;;;0.54;99.32
73429;BME280;61643;49.564;17.412;2023-01-23T06:21:13;99655.63;;;0.50;98.75
73429;BME280;61643;49.564;17.412;2023-01-23T06:23:39;99645.84;;;0.42;99.85
73429;BME280;61643;49.564;17.412;2023-01-23T06:26:04;99640.69;;;0.41;99.49
73429;BME280;61643;49.564;17.412;2023-01-23T06:28:30;99647.13;;;0.38;99.75
73429;BME280;61643;49.564;17.412;2023-01-23T06:30:59;99670.66;;;0.41;98.79
73429;BME280;61643;49.564;17.412;2023-01-23T06:33:24;99658.56;;;0.39;99.70
73429;BME280;61643;49.564;17.412;2023-01-23T06:35:56;99662.69;;;0.41;99.77
73429;BME280;61643;49.564;17.412;2023-01-23T06:38:21;99672.13;;;0.44;98.87
73429;BME280;61643;49.564;17.412;2023-01-23T06:40:46;99670.66;;;0.41;99.31
73429;BME280;61643;49.564;17.412;2023-01-23T06:43:12;99664.56;;;0.49;98.48
73429;BME280;61643;49.564;17.412;2023-01-23T06:45:37;99672.63;;;0.39;99.03
73429;BME280;61643;49.564;17.412;2023-01-23T06:48:03;99665.03;;;0.44;99.25
73429;BME280;61643;49.564;17.412;2023-01-23T06:50:28;99674.59;;;0.37;99.16
73429;BME280;61643;49.564;17.412;2023-01-23T06:52:53;99686.41;;;0.51;98.83
73429;BME280;61643;49.564;17.412;2023-01-23T06:55:19;99691.38;;;0.46;97.93
73429;BME280;61643;49.564;17.412;2023-01-23T06:57:45;99697.00;;;0.51;99.32
73429;BME280;61643;49.564;17.412;2023-01-23T07:00:11;99700.03;;;0.56;99.46
73429;BME280;61643;49.564;17.412;2023-01-23T07:02:37;99693.06;;;0.55;100.00
73429;BME280;61643;49.564;17.412;2023-01-23T07:05:03;99698.88;;;0.59;99.88
73429;BME280;61643;49.564;17.412;2023-01-23T07:07:28;99685.94;;;0.56;99.39
73429;BME280;61643;49.564;17.412;2023-01-23T07:09:54;99700.56;;;0.60;99.50
73429;BME280;61643;49.564;17.412;2023-01-23T07:12:19;99700.22;;;0.63;99.60
73429;BME280;61643;49.564;17.412;2023-01-23T07:14:44;99703.72;;;0.63;99.27
73429;BME280;61643;49.564;17.412;2023-01-23T07:17:10;99711.19;;;0.68;98.89
73429;BME280;61643;49.564;17.412;2023-01-23T07:19:35;99726.25;;;0.67;98.62
73429;BME280;61643;49.564;17.412;2023-01-23T07:22:00;99711.53;;;0.73;98.46
73429;BME280;61643;49.564;17.412;2023-01-23T07:24:26;99711.88;;;0.70;99.17
73429;BME280;61643;49.564;17.412;2023-01-23T07:26:54;99715.34;;;0.70;99.91
73429;BME280;61643;49.564;17.412;2023-01-23T07:29:19;99722.38;;;0.79;98.83
73429;BME280;61643;49.564;17.412;2023-01-23T07:31:44;99730.41;;;0.70;99.36
73429;BME280;61643;49.564;17.412;2023-01-23T07:34:10;99731.09;;;0.72;99.73
73429;BME280;61643;49.564;17.412;2023-01-23T07:36:35;99720.19;;;0.75;99.70
73429;BME280;61643;49.564;17.412;2023-01-23T07:39:00;99726.13;;;0.69;99.73
73429;BME280;61643;49.564;17.412;2023-01-23T07:41:26;99732.22;;;0.69;100.00
73429;BME280;61643;49.564;17.412;2023-01-23T07:43:52;99734.78;;;0.79;99.84
73429;BME280;61643;49.564;17.412;2023-01-23T07:46:18;99734.50;;;0.90;98.97
73429;BME280;61643;49.564;17.412;2023-01-23T07:48:44;99734.84;;;0.95;99.01
73429;BME280;61643;49.564;17.412;2023-01-23T07:51:10;99735.88;;;0.94;99.21
73429;BME280;61643;49.564;17.412;2023-01-23T07:53:36;99744.94;;;0.91;98.92
73429;BME280;61643;49.564;17.412;2023-01-23T07:56:04;99736.66;;;0.94;99.62
73429;BME280;61643;49.564;17.412;2023-01-23T07:58:31;99730.34;;;0.87;99.44
73429;BME280;61643;49.564;17.412;2023-01-23T08:00:56;99747.50;;;1.01;99.71
73429;BME280;61643;49.564;17.412;2023-01-23T08:03:22;99761.53;;;0.93;99.31
73429;BME280;61643;49.564;17.412;2023-01-23T08:05:48;99762.38;;;1.02;98.50
73429;BME280;61643;49.564;17.412;2023-01-23T08:08:14;99749.63;;;0.97;98.54
73429;BME280;61643;49.564;17.412;2023-01-23T08:10:40;99754.38;;;0.86;98.85
73429;BME280;61643;49.564;17.412;2023-01-23T08:13:05;99765.31;;;0.91;99.15
73429;BME280;61643;49.564;17.412;2023-01-23T08:15:31;99746.16;;;0.97;98.56
73429;BME280;61643;49.564;17.412;2023-01-23T08:17:56;99750.94;;;1.02;98.43
73429;BME280;61643;49.564;17.412;2023-01-23T08:20:21;99757.28;;;1.09;97.95
73429;BME280;61643;49.564;17.412;2023-01-23T08:22:47;99758.44;;;1.06;98.09
73429;BME280;61643;49.564;17.412;2023-01-23T08:25:12;99754.44;;;1.02;98.81
73429;BME280;61643;49.564;17.412;2023-01-23T08:27:38;99759.13;;;1.08;98.22
73429;BME280;61643;49.564;17.412;2023-01-23T08:30:04;99762.13;;;1.13;98.58
73429;BME280;61643;49.564;17.412;2023-01-23T08:32:30;99761.78;;;1.08;98.48
73429;BME280;61643;49.564;17.412;2023-01-23T08:34:56;99750.28;;;0.99;98.75
73429;BME280;61643;49.564;17.412;2023-01-23T08:37:21;99775.31;;;0.97;98.65
73429;BME280;61643;49.564;17.412;2023-01-23T08:39:47;99756.63;;;1.07;98.93
73429;BME280;61643;49.564;17.412;2023-01-23T08:42:12;99755.97;;;1.13;98.58
73429;BME280;61643;49.564;17.412;2023-01-23T08:44:37;99752.84;;;1.17;98.53
73429;BME280;61643;49.564;17.412;2023-01-23T08:47:03;99761.50;;;1.27;97.55
73429;BME280;61643;49.564;17.412;2023-01-23T08:49:28;99751.19;;;1.16;98.34
73429;BME280;61643;49.564;17.412;2023-01-23T08:51:54;99744.53;;;1.12;97.45
73429;BME280;61643;49.564;17.412;2023-01-23T08:54:21;99742.94;;;1.19;97.89
73429;BME280;61643;49.564;17.412;2023-01-23T08:56:46;99751.22;;;1.24;97.67
73429;BME280;61643;49.564;17.412;2023-01-23T08:59:11;99752.53;;;1.20;98.35
73429;BME280;61643;49.564;17.412;2023-01-23T09:01:37;99753.03;;;1.16;97.52
73429;BME280;61643;49.564;17.412;2023-01-23T09:04:02;99772.91;;;1.20;97.04
73429;BME280;61643;49.564;17.412;2023-01-23T09:06:27;99759.97;;;1.17;98.10
73429;BME280;61643;49.564;17.412;2023-01-23T09:08:53;99759.31;;;1.15;97.92
73429;BME280;61643;49.564;17.412;2023-01-23T09:11:18;99757.00;;;1.20;97.57
73429;BME280;61643;49.564;17.412;2023-01-23T09:13:45;99762.84;;;1.31;97.92
73429;BME280;61643;49.564;17.412;2023-01-23T09:16:10;99760.91;;;1.33;97.31
73429;BME280;61643;49.564;17.412;2023-01-23T09:18:36;99759.03;;;1.34;97.61
73429;BME280;61643;49.564;17.412;2023-01-23T09:21:10;99756.09;;;1.45;97.00
73429;BME280;61643;49.564;17.412;2023-01-23T09:23:36;99749.31;;;1.42;97.68
73429;BME280;61643;49.564;17.412;2023-01-23T09:26:06;99750.66;;;1.46;96.93
73429;BME280;61643;49.564;17.412;2023-01-23T09:28:32;99746.34;;;1.54;96.87
73429;BME280;61643;49.564;17.412;2023-01-23T09:31:06;99739.22;;;1.54;96.54
73429;BME280;61643;49.564;17.412;2023-01-23T09:33:33;99750.34;;;1.58;96.25
73429;BME280;61643;49.564;17.412;2023-01-23T09:35:58;99752.84;;;1.59;97.18
73429;BME280;61643;49.564;17.412;2023-01-23T09:38:24;99740.75;;;1.65;96.77
73429;BME280;61643;49.564;17.412;2023-01-23T09:40:52;99732.47;;;1.68;96.37
73429;BME280;61643;49.564;17.412;2023-01-23T09:43:25;99729.97;;;1.58;96.18
73429;BME280;61643;49.564;17.412;2023-01-23T09:46:00;99725.50;;;1.59;96.66
73429;BME280;61643;49.564;17.412;2023-01-23T09:51:10;99715.56;;;1.69;95.90
73429;BME280;61643;49.564;17.412;2023-01-23T09:53:39;99695.97;;;1.78;95.99
73429;BME280;61643;49.564;17.412;2023-01-23T09:58:39;99702.28;;;1.85;96.34
73429;BME280;61643;49.564;17.412;2023-01-23T10:01:11;99703.31;;;1.84;95.12
73429;BME280;61643;49.564;17.412;2023-01-23T10:03:39;99705.63;;;1.87;96.20
73429;BME280;61643;49.564;17.412;2023-01-23T10:06:21;99713.59;;;1.95;95.96
73429;BME280;61643;49.564;17.412;2023-01-23T10:09:04;99714.59;;;1.94;94.96
73429;BME280;61643;49.564;17.412;2023-01-23T10:11:51;99712.44;;;2.06;94.97
73429;BME280;61643;49.564;17.412;2023-01-23T10:17:46;99699.66;;;2.09;94.11
73429;BME280;61643;49.564;17.412;2023-01-23T10:20:32;99713.41;;;1.96;94.50
73429;BME280;61643;49.564;17.412;2023-01-23T10:23:17;99708.44;;;2.02;94.35
73429;BME280;61643;49.564;17.412;2023-01-23T10:25:49;99700.16;;;2.13;93.45
73429;BME280;61643;49.564;17.412;2023-01-23T10:28:28;99687.38;;;2.08;93.12
73429;BME280;61643;49.564;17.412;2023-01-23T10:31:01;99693.81;;;2.14;93.96
73429;BME280;61643;49.564;17.412;2023-01-23T10:34:01;99687.19;;;2.18;92.88
73429;BME280;61643;49.564;17.412;2023-01-23T10:39:13;99694.34;;;2.01;93.57
73429;BME280;61643;49.564;17.412;2023-01-23T10:41:39;99690.38;;;2.13;93.21
73429;BME280;61643;49.564;17.412;2023-01-23T10:44:14;99674.91;;;2.01;94.31
73429;BME280;61643;49.564;17.412;2023-01-23T10:46:46;99683.53;;;2.11;94.20
73429;BME280;61643;49.564;17.412;2023-01-23T10:51:54;99688.03;;;2.26;93.19
73429;BME280;61643;49.564;17.412;2023-01-23T10:54:24;99676.41;;;2.19;92.70
73429;BME280;61643;49.564;17.412;2023-01-23T10:57:02;99682.22;;;2.23;92.48
73429;BME280;61643;49.564;17.412;2023-01-23T10:59:35;99678.72;;;2.30;93.60
73429;BME280;61643;49.564;17.412;2023-01-23T11:04:41;99688.69;;;2.20;92.96
73429;BME280;61643;49.564;17.412;2023-01-23T11:09:46;99704.59;;;2.36;93.79
73429;BME280;61643;49.564;17.412;2023-01-23T11:14:46;99703.13;;;2.42;93.21
73429;BME280;61643;49.564;17.412;2023-01-23T11:17:24;99705.78;;;2.42;93.03
73429;BME280;61643;49.564;17.412;2023-01-23T11:19:56;99683.00;;;2.47;92.99
73429;BME280;61643;49.564;17.412;2023-01-23T11:22:30;99692.16;;;2.45;93.51
73429;BME280;61643;49.564;17.412;2023-01-23T11:24:56;99695.13;;;2.50;92.86
73429;BME280;61643;49.564;17.412;2023-01-23T11:27:24;99697.28;;;2.55;92.10
73429;BME280;61643;49.564;17.412;2023-01-23T11:30:26;99701.41;;;2.65;92.57
73429;BME280;61643;49.564;17.412;2023-01-23T11:33:03;99698.44;;;2.52;92.25
73429;BME280;61643;49.564;17.412;2023-01-23T11:38:00;99691.81;;;2.48;94.15
73429;BME280;61643;49.564;17.412;2023-01-23T11:40:27;99690.63;;;2.42;93.54
73429;BME280;61643;49.564;17.412;2023-01-23T11:42:53;99694.28;;;2.58;93.39
73429;BME280;61643;49.564;17.412;2023-01-23T11:45:32;99695.25;;;2.65;93.27
73429;BME280;61643;49.564;17.412;2023-01-23T11:59:23;99676.16;;;2.61;91.92
73429;BME280;61643;49.564;17.412;2023-01-23T12:02:15;99694.75;;;2.69;92.30
73429;BME280;61643;49.564;17.412;2023-01-23T12:07:22;99679.28;;;2.73;92.88
73429;BME280;61643;49.564;17.412;2023-01-23T12:12:29;99690.28;;;2.62;91.65
73429;BME280;61643;49.564;17.412;2023-01-23T12:15:22;99683.69;;;2.50;91.84
73429;BME280;61643;49.564;17.412;2023-01-23T12:25:50;99685.59;;;2.72;92.54
73429;BME280;61643;49.564;17.412;2023-01-23T12:31:08;99671.50;;;2.71;92.33
73429;BME280;61643;49.564;17.412;2023-01-23T12:42:39;99664.00;;;2.75;92.05
73429;BME280;61643;49.564;17.412;2023-01-23T12:47:39;99671.31;;;2.73;91.13
73429;BME280;61643;49.564;17.412;2023-01-23T12:53:03;99676.00;;;2.63;91.56
73429;BME280;61643;49.564;17.412;2023-01-23T12:58:27;99667.06;;;2.39;92.25
73429;BME280;61643;49.564;17.412;2023-01-23T13:01:14;99670.91;;;2.29;92.93
73429;BME280;61643;49.564;17.412;2023-01-23T13:04:03;99672.91;;;2.35;93.79
73429;BME280;61643;49.564;17.412;2023-01-23T13:14:46;99659.94;;;2.32;94.19
73429;BME280;61643;49.564;17.412;2023-01-23T13:23:32;99661.25;;;2.36;93.69
73429;BME280;61643;49.564;17.412;2023-01-23T13:26:23;99653.34;;;2.28;93.58
73429;BME280;61643;49.564;17.412;2023-01-23T13:29:03;99659.13;;;2.31;94.27
73429;BME280;61643;49.564;17.412;2023-01-23T13:31:45;99672.38;;;2.47;93.44
73429;BME280;61643;49.564;17.412;2023-01-23T13:36:49;99660.91;;;2.39;94.18
73429;BME280;61643;49.564;17.412;2023-01-23T13:41:41;99667.25;;;2.30;93.42
73429;BME280;61643;49.564;17.412;2023-01-23T13:44:25;99663.97;;;2.28;94.02
73429;BME280;61643;49.564;17.412;2023-01-23T13:47:02;99671.25;;;2.34;93.93
73429;BME280;61643;49.564;17.412;2023-01-23T13:50:10;99679.88;;;2.36;94.69
73429;BME280;61643;49.564;17.412;2023-01-23T13:52:42;99673.06;;;2.33;92.88
73429;BME280;61643;49.564;17.412;2023-01-23T13:55:31;99674.53;;;2.36;93.15
73429;BME280;61643;49.564;17.412;2023-01-23T13:58:19;99664.25;;;2.33;93.69
73429;BME280;61643;49.564;17.412;2023-01-23T14:01:18;99665.44;;;2.30;93.85
73429;BME280;61643;49.564;17.412;2023-01-23T14:04:12;99677.19;;;2.36;93.47
73429;BME280;61643;49.564;17.412;2023-01-23T14:06:59;99677.06;;;2.37;93.62
73429;BME280;61643;49.564;17.412;2023-01-23T14:09:27;99687.69;;;2.21;93.60
73429;BME280;61643;49.564;17.412;2023-01-23T14:12:01;99684.53;;;2.18;93.98
73429;BME280;61643;49.564;17.412;2023-01-23T14:14:35;99669.13;;;2.05;94.66
73429;BME280;61643;49.564;17.412;2023-01-23T14:17:21;99674.25;;;2.07;95.13
73429;BME280;61643;49.564;17.412;2023-01-23T14:20:00;99662.28;;;2.11;95.61
73429;BME280;61643;49.564;17.412;2023-01-23T14:22:27;99666.13;;;2.08;96.07
73429;BME280;61643;49.564;17.412;2023-01-23T14:24:54;99681.06;;;2.09;94.99
73429;BME280;61643;49.564;17.412;2023-01-23T14:27:33;99686.72;;;2.06;95.77
73429;BME280;61643;49.564;17.412;2023-01-23T14:30:14;99676.91;;;2.15;95.46
73429;BME280;61643;49.564;17.412;2023-01-23T14:32:40;99679.22;;;2.18;95.56
73429;BME280;61643;49.564;17.412;2023-01-23T14:35:23;99673.06;;;2.25;95.16
73429;BME280;61643;49.564;17.412;2023-01-23T14:37:49;99670.25;;;2.19;95.19
73429;BME280;61643;49.564;17.412;2023-01-23T14:40:18;99682.22;;;2.23;96.03
73429;BME280;61643;49.564;17.412;2023-01-23T14:42:44;99682.22;;;2.23;95.20